METAR Data
IDs: Format: Raw Decoded Include TAF

Data at: 0843 UTC 07 Apr 2020

KBUF 070754Z 00000KT 10SM BKN110 06/M03 A2997 RMK AO2 SLP151 T00611028

KBUF 070539Z 0706/0806 18004KT P6SM BKN100
  FM071000 VRB04KT P6SM BKN250
  FM072200 20007KT P6SM OVC040
  FM080100 17005KT P6SM OVC025
  FM080200 12005KT 6SM -RA OVC020
  FM080400 11006KT 4SM -RA BR OVC015